createdAt,value
2023-03-17T00:01:54.355Z,-1.60
2023-03-17T00:04:23.746Z,-1.58
2023-03-17T00:06:51.451Z,-1.58
2023-03-17T00:09:19.788Z,-1.54
2023-03-17T00:11:46.951Z,-1.50
2023-03-17T00:14:14.557Z,-1.41
2023-03-17T00:16:43.521Z,-1.36
2023-03-17T00:19:17.935Z,-1.29
2023-03-17T00:21:48.315Z,-1.19
2023-03-17T00:24:15.685Z,-1.11
2023-03-17T00:26:43.383Z,-0.99
2023-03-17T00:29:10.721Z,-0.87
2023-03-17T00:31:38.368Z,-0.75
2023-03-17T00:34:06.292Z,-0.61
2023-03-17T00:36:34.084Z,-0.46
2023-03-17T00:39:03.484Z,-0.37
2023-03-17T00:41:31.280Z,-0.24
2023-03-17T00:43:59.545Z,-0.13
2023-03-17T00:46:35.765Z,0.02
2023-03-17T00:51:44.922Z,0.36
2023-03-17T00:54:12.851Z,0.52
2023-03-17T00:56:40.354Z,0.64
2023-03-17T00:59:29.976Z,0.78
2023-03-17T01:01:57.606Z,0.96
2023-03-17T01:04:25.084Z,1.13
2023-03-17T01:06:52.792Z,1.29
2023-03-17T01:09:20.530Z,1.54
2023-03-17T01:11:48.990Z,1.78
2023-03-17T01:14:16.811Z,2.63
2023-03-17T01:16:44.444Z,3.92
2023-03-17T01:19:12.772Z,5.35
2023-03-17T01:21:40.791Z,6.57
2023-03-17T01:24:09.277Z,7.51
2023-03-17T01:26:36.997Z,8.15
2023-03-17T01:29:06.045Z,8.71
2023-03-17T01:31:33.523Z,9.46
2023-03-17T01:34:00.843Z,10.05
2023-03-17T01:36:27.925Z,10.47
2023-03-17T01:38:55.029Z,10.70
2023-03-17T01:41:22.463Z,10.83
2023-03-17T01:43:49.846Z,10.85
2023-03-17T01:46:22.747Z,10.91
2023-03-17T01:49:30.373Z,10.97
2023-03-17T01:52:10.987Z,10.82
2023-03-17T01:54:56.351Z,10.66
2023-03-17T01:57:38.059Z,10.46
2023-03-17T02:00:17.829Z,10.37
2023-03-17T02:02:49.950Z,10.29
2023-03-17T02:05:20.604Z,10.30
2023-03-17T02:07:48.066Z,10.39
2023-03-17T02:10:17.326Z,10.51
2023-03-17T02:12:44.765Z,10.52
2023-03-17T02:15:11.830Z,10.57
2023-03-17T02:17:39.268Z,10.70
2023-03-17T02:20:32.628Z,11.03
2023-03-17T02:23:00.224Z,11.25
2023-03-17T02:25:28.711Z,11.43
2023-03-17T02:27:59.960Z,11.52
2023-03-17T02:30:27.148Z,11.72
2023-03-17T02:32:54.396Z,11.83
2023-03-17T02:35:23.524Z,12.03
2023-03-17T02:37:50.663Z,12.04
2023-03-17T02:40:18.358Z,11.99
2023-03-17T02:42:46.345Z,11.67
2023-03-17T02:45:14.199Z,11.75
2023-03-17T02:47:41.889Z,11.97
2023-03-17T02:50:10.401Z,12.19
2023-03-17T02:52:37.799Z,12.27
2023-03-17T02:55:05.739Z,12.46
2023-03-17T02:57:33.068Z,12.64
2023-03-17T03:00:00.624Z,12.71
2023-03-17T03:02:27.702Z,12.90
2023-03-17T03:04:56.021Z,13.10
2023-03-17T03:07:23.521Z,13.01
2023-03-17T03:09:51.162Z,13.12
2023-03-17T03:12:18.355Z,13.04
2023-03-17T03:14:45.755Z,12.99
2023-03-17T03:17:12.905Z,12.77
2023-03-17T03:19:40.346Z,12.67
2023-03-17T03:22:08.372Z,12.79
2023-03-17T03:24:35.947Z,12.82
2023-03-17T03:27:03.342Z,12.67
2023-03-17T03:29:30.933Z,12.59
2023-03-17T03:31:58.051Z,12.64
2023-03-17T03:34:25.423Z,12.60
2023-03-17T03:36:52.948Z,12.56
2023-03-17T03:39:20.109Z,12.59
2023-03-17T03:41:47.328Z,12.53
2023-03-17T03:44:14.580Z,12.65
2023-03-17T03:46:41.969Z,12.72
2023-03-17T03:49:09.378Z,12.79
2023-03-17T03:51:36.297Z,12.84
2023-03-17T03:54:03.706Z,12.90
2023-03-17T03:56:30.902Z,12.85
2023-03-17T03:58:58.218Z,12.77
2023-03-17T04:01:25.555Z,12.72
2023-03-17T04:03:53.057Z,12.70
2023-03-17T04:06:20.385Z,12.68
2023-03-17T04:08:47.808Z,12.64
2023-03-17T04:11:14.939Z,12.62
2023-03-17T04:13:42.342Z,12.72
2023-03-17T04:16:09.820Z,12.73
2023-03-17T04:18:37.540Z,12.79
2023-03-17T04:21:05.454Z,12.68
2023-03-17T04:23:36.021Z,12.55
2023-03-17T04:26:04.327Z,12.37
2023-03-17T04:28:31.430Z,12.22
2023-03-17T04:30:59.127Z,12.13
2023-03-17T04:33:26.375Z,12.04
2023-03-17T04:35:53.645Z,11.84
2023-03-17T04:38:21.343Z,11.54
2023-03-17T04:40:49.744Z,11.36
2023-03-17T04:43:18.108Z,11.28
2023-03-17T04:45:45.484Z,11.32
2023-03-17T04:48:12.724Z,11.30
2023-03-17T04:50:40.076Z,11.30
2023-03-17T04:53:07.555Z,11.24
2023-03-17T04:55:35.720Z,11.11
2023-03-17T04:58:02.881Z,11.13
2023-03-17T05:00:30.539Z,11.15
2023-03-17T05:02:57.972Z,11.18
2023-03-17T05:05:25.095Z,11.15
2023-03-17T05:07:52.265Z,11.08
2023-03-17T05:10:20.145Z,10.96
2023-03-17T05:12:47.490Z,10.92
2023-03-17T05:15:15.024Z,10.86
2023-03-17T05:17:42.434Z,10.83
2023-03-17T05:20:10.480Z,10.84
2023-03-17T05:22:37.893Z,10.80
2023-03-17T05:25:06.535Z,10.75
2023-03-17T05:27:34.081Z,10.68
2023-03-17T05:30:02.362Z,10.57
2023-03-17T05:32:30.036Z,10.46
2023-03-17T05:34:57.913Z,10.42
2023-03-17T05:37:25.480Z,10.41
2023-03-17T05:39:53.804Z,10.17
2023-03-17T05:42:21.111Z,9.93
2023-03-17T05:44:48.526Z,9.70
2023-03-17T05:47:16.298Z,9.50
2023-03-17T05:49:43.395Z,9.35
2023-03-17T05:52:10.630Z,9.26
2023-03-17T05:54:37.858Z,9.26
2023-03-17T05:57:05.352Z,9.35
2023-03-17T05:59:33.138Z,9.32
2023-03-17T06:02:00.247Z,9.29
2023-03-17T06:04:27.500Z,9.38
2023-03-17T06:06:54.831Z,9.53
2023-03-17T06:09:22.478Z,9.53
2023-03-17T06:11:49.940Z,9.51
2023-03-17T06:14:18.077Z,9.47
2023-03-17T06:16:45.251Z,9.48
2023-03-17T06:19:12.911Z,9.40
2023-03-17T06:21:40.142Z,9.36
2023-03-17T06:24:07.674Z,9.35
2023-03-17T06:26:35.028Z,9.39
2023-03-17T06:29:04.862Z,9.44
2023-03-17T06:31:32.323Z,9.52
2023-03-17T06:34:00.385Z,9.55
2023-03-17T06:36:27.660Z,9.47
2023-03-17T06:38:55.081Z,9.45
2023-03-17T06:41:22.163Z,9.40
2023-03-17T06:43:49.615Z,9.31
2023-03-17T06:46:16.848Z,9.23
2023-03-17T06:48:44.305Z,9.24
2023-03-17T06:51:11.736Z,9.36
2023-03-17T06:53:39.080Z,9.44
2023-03-17T06:56:07.476Z,9.43
2023-03-17T06:58:35.476Z,9.47
2023-03-17T07:01:03.938Z,9.55
2023-03-17T07:03:32.400Z,9.65
2023-03-17T07:06:00.485Z,9.74
2023-03-17T07:08:30.498Z,9.79
2023-03-17T07:10:58.851Z,9.86
2023-03-17T07:13:27.078Z,9.94
2023-03-17T07:15:55.504Z,10.03
2023-03-17T07:18:22.613Z,10.11
2023-03-17T07:20:50.375Z,10.13
2023-03-17T07:23:20.416Z,10.20
2023-03-17T07:25:47.802Z,10.30
2023-03-17T07:28:15.895Z,10.32
2023-03-17T07:30:46.864Z,10.36
2023-03-17T07:33:14.768Z,10.45
2023-03-17T07:35:43.376Z,10.53
2023-03-17T07:38:11.763Z,10.56
2023-03-17T07:40:39.224Z,10.54
2023-03-17T07:43:06.341Z,10.48
2023-03-17T07:45:35.718Z,10.41
2023-03-17T07:48:04.916Z,10.25
2023-03-17T07:50:33.403Z,10.12
2023-03-17T07:53:01.215Z,10.08
2023-03-17T07:55:32.545Z,10.02
2023-03-17T07:58:00.339Z,9.90
2023-03-17T08:00:29.115Z,9.84
2023-03-17T08:03:09.419Z,9.83
2023-03-17T08:05:37.754Z,9.77
2023-03-17T08:08:06.300Z,9.71
2023-03-17T08:10:34.119Z,9.73
2023-03-17T08:13:01.639Z,9.80
2023-03-17T08:15:30.587Z,9.84
2023-03-17T08:17:58.020Z,9.84
2023-03-17T08:20:25.215Z,9.88
2023-03-17T08:22:52.697Z,9.83
2023-03-17T08:25:20.060Z,9.81
2023-03-17T08:27:47.488Z,9.85
2023-03-17T08:30:16.061Z,9.88
2023-03-17T08:32:43.893Z,9.91
2023-03-17T08:35:15.733Z,9.93
2023-03-17T08:37:44.047Z,9.94
2023-03-17T08:40:12.489Z,9.91
2023-03-17T08:42:39.975Z,9.87
2023-03-17T08:45:07.634Z,9.82
2023-03-17T08:47:34.912Z,9.81
2023-03-17T08:50:02.497Z,9.77
2023-03-17T08:52:29.707Z,9.79
2023-03-17T08:54:57.483Z,9.79
2023-03-17T08:57:24.986Z,9.78
2023-03-17T08:59:52.401Z,9.83
2023-03-17T09:02:20.109Z,9.76
2023-03-17T09:04:47.900Z,9.75
2023-03-17T09:07:15.201Z,9.79
2023-03-17T09:09:42.315Z,9.86
2023-03-17T09:12:09.788Z,9.89
2023-03-17T09:14:43.362Z,9.91
2023-03-17T09:17:13.663Z,9.92
2023-03-17T09:19:41.340Z,9.87
2023-03-17T09:22:13.212Z,9.86
2023-03-17T09:24:40.850Z,9.83
2023-03-17T09:27:08.344Z,9.84
2023-03-17T09:29:36.011Z,9.83
2023-03-17T09:32:03.150Z,9.85
2023-03-17T09:34:30.640Z,9.84
2023-03-17T09:36:59.531Z,9.86
2023-03-17T09:39:27.291Z,9.78
2023-03-17T09:42:19.517Z,9.77
2023-03-17T09:45:18.817Z,9.67
2023-03-17T09:48:04.896Z,9.62
2023-03-17T09:50:34.558Z,9.57
2023-03-17T09:53:03.972Z,9.57
2023-03-17T09:55:32.382Z,9.52
2023-03-17T09:58:00.765Z,9.52
2023-03-17T10:00:29.794Z,9.49
2023-03-17T10:02:57.984Z,9.50
2023-03-17T10:05:29.954Z,9.48
2023-03-17T10:08:28.900Z,9.46
2023-03-17T10:10:57.038Z,9.44
2023-03-17T10:13:42.538Z,9.41
2023-03-17T10:16:15.825Z,9.36
2023-03-17T10:18:56.886Z,9.32
2023-03-17T10:21:29.343Z,9.20
2023-03-17T10:23:58.098Z,9.18
2023-03-17T10:26:31.600Z,9.12
2023-03-17T10:29:00.092Z,9.03
2023-03-17T10:31:35.379Z,8.97
2023-03-17T10:34:33.010Z,8.89
2023-03-17T10:37:03.067Z,8.82
2023-03-17T10:39:32.713Z,8.78
2023-03-17T10:42:08.986Z,8.70
2023-03-17T10:44:46.547Z,8.64
2023-03-17T10:47:24.277Z,8.62
2023-03-17T10:49:52.273Z,8.57
2023-03-17T10:52:27.604Z,8.53
2023-03-17T10:54:54.760Z,8.48
2023-03-17T10:57:22.765Z,8.39
2023-03-17T10:59:54.111Z,8.36
2023-03-17T11:02:24.417Z,8.29
2023-03-17T11:04:55.466Z,8.27
2023-03-17T11:07:35.523Z,8.22
2023-03-17T11:10:03.962Z,8.18
2023-03-17T11:12:37.973Z,8.14
2023-03-17T11:15:18.598Z,8.05
2023-03-17T11:17:59.438Z,8.00
2023-03-17T11:20:49.134Z,7.93
2023-03-17T11:23:28.201Z,7.86
2023-03-17T11:26:08.154Z,7.77
2023-03-17T11:28:38.876Z,7.69
2023-03-17T11:31:07.620Z,7.65
2023-03-17T11:33:58.191Z,7.58
2023-03-17T11:36:54.034Z,7.46
2023-03-17T11:39:48.261Z,7.32
2023-03-17T11:42:23.398Z,7.22
2023-03-17T11:45:24.450Z,7.12
2023-03-17T11:48:25.378Z,7.00
2023-03-17T11:51:27.621Z,6.87
2023-03-17T11:54:03.324Z,6.72
2023-03-17T11:56:46.953Z,6.59
2023-03-17T11:59:25.817Z,6.45
2023-03-17T12:02:31.540Z,6.33
2023-03-17T12:05:02.521Z,6.21
2023-03-17T12:07:50.375Z,6.12
2023-03-17T12:10:24.096Z,5.99
2023-03-17T12:13:12.834Z,5.89
2023-03-17T12:15:44.052Z,5.80
2023-03-17T12:18:24.930Z,5.73
2023-03-17T12:21:04.232Z,5.64
2023-03-17T12:23:49.182Z,5.57
2023-03-17T12:26:26.959Z,5.44
2023-03-17T12:29:04.727Z,5.36
2023-03-17T12:31:33.501Z,5.35
2023-03-17T12:34:06.397Z,5.31
2023-03-17T12:36:35.003Z,5.29
2023-03-17T12:39:06.716Z,5.27
2023-03-17T12:41:49.755Z,5.26
2023-03-17T12:44:27.681Z,5.20
2023-03-17T12:47:13.076Z,5.19
2023-03-17T12:49:45.020Z,5.14
2023-03-17T12:52:40.574Z,5.08
2023-03-17T12:55:15.843Z,5.00
2023-03-17T12:57:47.205Z,4.95
2023-03-17T13:00:22.810Z,4.92
2023-03-17T13:02:53.154Z,4.87
2023-03-17T13:05:30.055Z,4.81
2023-03-17T13:07:59.738Z,4.78
2023-03-17T13:10:43.682Z,4.72
2023-03-17T13:13:15.052Z,4.69
2023-03-17T13:15:42.652Z,4.65
2023-03-17T13:18:15.727Z,4.63
2023-03-17T13:20:45.862Z,4.57
2023-03-17T13:23:15.135Z,4.52
2023-03-17T13:25:43.805Z,4.46
2023-03-17T13:28:13.836Z,4.38
2023-03-17T13:30:56.908Z,4.32
2023-03-17T13:33:30.786Z,4.24
2023-03-17T13:36:07.589Z,4.16
2023-03-17T13:38:41.891Z,4.09
2023-03-17T13:41:37.877Z,4.04
2023-03-17T13:44:26.365Z,3.96
2023-03-17T13:46:54.613Z,3.89
2023-03-17T13:49:29.662Z,3.85
2023-03-17T13:52:17.193Z,3.79
2023-03-17T13:54:49.360Z,3.71
2023-03-17T13:57:30.719Z,3.61
2023-03-17T14:00:01.520Z,3.62
2023-03-17T14:02:33.216Z,3.65
2023-03-17T14:05:20.827Z,3.72
2023-03-17T14:08:19.872Z,3.83
2023-03-17T14:10:56.522Z,3.89
2023-03-17T14:13:24.604Z,3.92
2023-03-17T14:16:11.998Z,3.98
2023-03-17T14:18:40.219Z,3.98
2023-03-17T14:21:11.643Z,4.02
2023-03-17T14:23:38.859Z,4.05
2023-03-17T14:26:07.592Z,4.05
2023-03-17T14:28:35.354Z,4.04
2023-03-17T14:31:05.228Z,4.00
2023-03-17T14:33:34.372Z,3.96
2023-03-17T14:36:02.185Z,3.90
2023-03-17T14:38:31.378Z,3.86
2023-03-17T14:41:16.581Z,3.81
2023-03-17T14:43:44.064Z,3.77
2023-03-17T14:46:24.413Z,3.75
2023-03-17T14:49:02.731Z,3.80
2023-03-17T14:51:37.183Z,3.78
2023-03-17T14:54:11.674Z,3.71
2023-03-17T14:56:41.438Z,3.60
2023-03-17T14:59:29.826Z,3.58
2023-03-17T15:01:58.959Z,3.53
2023-03-17T15:04:31.324Z,3.48
2023-03-17T15:07:01.018Z,3.40
2023-03-17T15:09:31.220Z,3.37
2023-03-17T15:12:06.975Z,3.32
2023-03-17T15:14:35.412Z,3.26
2023-03-17T15:17:04.046Z,3.22
2023-03-17T15:19:41.011Z,3.21
2023-03-17T15:22:36.247Z,3.19
2023-03-17T15:25:16.737Z,3.15
2023-03-17T15:27:44.272Z,3.12
2023-03-17T15:30:12.228Z,3.12
2023-03-17T15:32:40.583Z,3.06
2023-03-17T15:35:08.813Z,3.03
2023-03-17T15:37:36.071Z,2.97
2023-03-17T15:40:05.183Z,2.93
2023-03-17T15:42:34.220Z,2.89
2023-03-17T15:45:02.461Z,2.84
2023-03-17T15:47:31.893Z,2.80
2023-03-17T15:50:01.964Z,2.77
2023-03-17T15:52:29.727Z,2.71
2023-03-17T15:54:59.316Z,2.66
2023-03-17T15:57:27.397Z,2.61
2023-03-17T15:59:54.942Z,2.61
2023-03-17T16:02:31.657Z,2.59
2023-03-17T16:05:02.785Z,2.56
2023-03-17T16:07:31.272Z,2.51
2023-03-17T16:09:58.336Z,2.48
2023-03-17T16:12:25.762Z,2.46
2023-03-17T16:14:53.527Z,2.42
2023-03-17T16:17:26.692Z,2.40
2023-03-17T16:19:57.036Z,2.39
2023-03-17T16:22:37.317Z,2.36
2023-03-17T16:25:07.615Z,2.30
2023-03-17T16:27:34.959Z,2.22
2023-03-17T16:30:02.489Z,2.14
2023-03-17T16:32:30.238Z,2.08
2023-03-17T16:34:57.727Z,2.04
2023-03-17T16:37:25.087Z,1.99
2023-03-17T16:39:52.894Z,1.94
2023-03-17T16:42:23.385Z,1.88
2023-03-17T16:44:51.287Z,1.86
2023-03-17T16:47:18.455Z,1.82
2023-03-17T16:49:46.073Z,1.82
2023-03-17T16:52:13.251Z,1.76
2023-03-17T16:54:40.890Z,1.74
2023-03-17T16:57:10.746Z,1.70
2023-03-17T16:59:38.213Z,1.64
2023-03-17T17:02:14.121Z,1.60
2023-03-17T17:04:41.857Z,1.54
2023-03-17T17:07:09.778Z,1.50
2023-03-17T17:09:37.161Z,1.48
2023-03-17T17:12:04.645Z,1.44
2023-03-17T17:14:32.009Z,1.42
2023-03-17T17:16:59.227Z,1.40
2023-03-17T17:19:26.314Z,1.37
2023-03-17T17:21:53.974Z,1.36
2023-03-17T17:24:21.402Z,1.34
2023-03-17T17:26:48.793Z,1.30
2023-03-17T17:29:16.379Z,1.28
2023-03-17T17:31:43.438Z,1.28
2023-03-17T17:34:10.812Z,1.25
2023-03-17T17:36:38.226Z,1.23
2023-03-17T17:39:06.932Z,1.18
2023-03-17T17:41:34.223Z,1.16
2023-03-17T17:44:01.457Z,1.11
2023-03-17T17:46:29.258Z,1.08
2023-03-17T17:48:57.877Z,1.07
2023-03-17T17:51:25.010Z,1.07
2023-03-17T17:53:52.092Z,1.04
2023-03-17T17:56:19.512Z,1.02
2023-03-17T17:58:46.994Z,0.97
2023-03-17T18:01:19.219Z,0.93
2023-03-17T18:03:46.598Z,0.91
2023-03-17T18:06:14.195Z,0.88
2023-03-17T18:08:43.260Z,0.86
2023-03-17T18:11:11.071Z,0.81
2023-03-17T18:13:39.888Z,0.79
2023-03-17T18:16:09.596Z,0.79
2023-03-17T18:18:40.617Z,0.78
2023-03-17T18:21:08.132Z,0.76
2023-03-17T18:23:36.141Z,0.76
2023-03-17T18:26:04.264Z,0.75
2023-03-17T18:28:31.794Z,0.74
2023-03-17T18:31:03.362Z,0.67
2023-03-17T18:33:32.045Z,0.64
2023-03-17T18:35:59.245Z,0.59
2023-03-17T18:38:26.674Z,0.54
2023-03-17T18:40:53.748Z,0.49
2023-03-17T18:43:21.030Z,0.45
2023-03-17T18:45:48.329Z,0.39
2023-03-17T18:48:15.921Z,0.36
2023-03-17T18:50:43.676Z,0.32
2023-03-17T18:53:10.909Z,0.29
2023-03-17T18:55:38.262Z,0.26
2023-03-17T18:58:06.233Z,0.24
2023-03-17T19:00:33.854Z,0.20
2023-03-17T19:03:01.174Z,0.21
2023-03-17T19:05:29.093Z,0.19
2023-03-17T19:07:56.478Z,0.17
2023-03-17T19:10:23.924Z,0.18
2023-03-17T19:12:51.888Z,0.15
2023-03-17T19:15:19.390Z,0.14
2023-03-17T19:17:47.202Z,0.17
2023-03-17T19:20:15.071Z,0.19
2023-03-17T19:22:42.533Z,0.20
2023-03-17T19:25:09.905Z,0.23
2023-03-17T19:27:37.682Z,0.24
2023-03-17T19:30:05.806Z,0.24
2023-03-17T19:32:33.715Z,0.24
2023-03-17T19:35:01.118Z,0.22
2023-03-17T19:37:29.694Z,0.20
2023-03-17T19:39:56.719Z,0.16
2023-03-17T19:42:23.887Z,0.14
2023-03-17T19:44:50.942Z,0.13
2023-03-17T19:47:18.524Z,0.09
2023-03-17T19:49:45.868Z,0.07
2023-03-17T19:52:13.399Z,0.06
2023-03-17T19:54:44.538Z,0.02
2023-03-17T19:57:13.024Z,0.01
2023-03-17T19:59:41.061Z,-0.03
2023-03-17T20:02:08.525Z,-0.04
2023-03-17T20:04:37.038Z,-0.05
2023-03-17T20:07:04.783Z,-0.06
2023-03-17T20:09:32.550Z,-0.10
2023-03-17T20:11:59.870Z,-0.11
2023-03-17T20:14:26.921Z,-0.14
2023-03-17T20:16:54.280Z,-0.14
2023-03-17T20:19:21.952Z,-0.16
2023-03-17T20:21:49.196Z,-0.21
2023-03-17T20:24:16.339Z,-0.20
2023-03-17T20:26:44.331Z,-0.23
2023-03-17T20:29:13.987Z,-0.24
2023-03-17T20:31:41.854Z,-0.25
2023-03-17T20:34:09.798Z,-0.28
2023-03-17T20:36:37.284Z,-0.30
2023-03-17T20:39:04.570Z,-0.30
2023-03-17T20:41:31.995Z,-0.29
2023-03-17T20:43:59.372Z,-0.33
2023-03-17T20:46:26.825Z,-0.33
2023-03-17T20:48:58.456Z,-0.35
2023-03-17T20:51:26.141Z,-0.37
2023-03-17T20:53:54.744Z,-0.36
2023-03-17T20:56:23.297Z,-0.37
2023-03-17T20:58:52.845Z,-0.39
2023-03-17T21:01:21.460Z,-0.39
2023-03-17T21:03:49.099Z,-0.39
2023-03-17T21:06:16.655Z,-0.43
2023-03-17T21:08:46.139Z,-0.41
2023-03-17T21:11:17.594Z,-0.45
2023-03-17T21:13:45.521Z,-0.46
2023-03-17T21:16:19.457Z,-0.46
2023-03-17T21:18:47.384Z,-0.49
2023-03-17T21:21:15.287Z,-0.50
2023-03-17T21:23:42.644Z,-0.49
2023-03-17T21:26:10.318Z,-0.51
2023-03-17T21:28:41.224Z,-0.52
2023-03-17T21:31:09.754Z,-0.54
2023-03-17T21:33:37.029Z,-0.55
2023-03-17T21:36:05.219Z,-0.58
2023-03-17T21:38:32.893Z,-0.58
2023-03-17T21:41:18.382Z,-0.58
2023-03-17T21:43:46.622Z,-0.61
2023-03-17T21:46:14.085Z,-0.63
2023-03-17T21:48:41.289Z,-0.65
2023-03-17T21:51:08.457Z,-0.68
2023-03-17T21:53:35.620Z,-0.68
2023-03-17T21:56:03.745Z,-0.70
2023-03-17T21:58:31.107Z,-0.72
2023-03-17T22:01:00.286Z,-0.74
2023-03-17T22:03:27.752Z,-0.75
2023-03-17T22:05:56.472Z,-0.77
2023-03-17T22:08:24.906Z,-0.77
2023-03-17T22:10:52.141Z,-0.79
2023-03-17T22:13:19.235Z,-0.80
2023-03-17T22:15:46.321Z,-0.81
2023-03-17T22:18:13.976Z,-0.82
2023-03-17T22:20:41.370Z,-0.82
2023-03-17T22:23:08.934Z,-0.87
2023-03-17T22:25:36.979Z,-0.88
2023-03-17T22:28:04.646Z,-0.89
2023-03-17T22:30:32.166Z,-0.93
2023-03-17T22:32:59.325Z,-0.95
2023-03-17T22:35:27.203Z,-0.98
2023-03-17T22:37:54.467Z,-1.00
2023-03-17T22:40:21.600Z,-1.02
2023-03-17T22:42:48.741Z,-1.04
2023-03-17T22:45:16.365Z,-1.03
2023-03-17T22:47:43.503Z,-1.03
2023-03-17T22:50:11.622Z,-1.05
2023-03-17T22:52:38.792Z,-1.07
2023-03-17T22:55:07.647Z,-1.09
2023-03-17T22:57:36.237Z,-1.12
2023-03-17T23:00:16.466Z,-1.11
2023-03-17T23:02:44.507Z,-1.11
2023-03-17T23:05:13.115Z,-1.12
2023-03-17T23:07:50.268Z,-1.16
2023-03-17T23:10:22.682Z,-1.15
2023-03-17T23:12:50.530Z,-1.15
2023-03-17T23:15:18.943Z,-1.18
2023-03-17T23:17:46.759Z,-1.19
2023-03-17T23:20:15.210Z,-1.22
2023-03-17T23:22:42.276Z,-1.26
2023-03-17T23:25:10.064Z,-1.26
2023-03-17T23:27:37.047Z,-1.29
2023-03-17T23:30:05.692Z,-1.32
2023-03-17T23:32:33.803Z,-1.34
2023-03-17T23:35:01.354Z,-1.35
2023-03-17T23:37:29.084Z,-1.38
2023-03-17T23:39:56.654Z,-1.39
2023-03-17T23:42:23.937Z,-1.42
2023-03-17T23:44:51.823Z,-1.40
2023-03-17T23:47:20.347Z,-1.39
2023-03-17T23:49:47.392Z,-1.40
2023-03-17T23:52:15.452Z,-1.38
2023-03-17T23:54:43.698Z,-1.39
2023-03-17T23:57:12.438Z,-1.38
2023-03-17T23:59:40.490Z,-1.37
